Terminal Aerodrome Forecast
Issued by NWS Boston, MA

Current Version | Previous Version | Text Only | Print | Product List | Glossary On
Versions: 1 2 3 4 5 6 7 8 9 10 11 12 13 14 15 16 17 18 19 20 21 22 23 24 25 26
000 FTUS41 KBOX 302320 TAFBOS TAF KBOS 302320Z 0100/0206 13008KT P6SM FEW080 FM010030 17008KT P6SM FEW080 FM010400 21007KT P6SM FEW080 FM011700 17011KT P6SM BKN060 FM012000 18012G19KT P6SM VCSH BKN060 FM020000 18011KT P6SM -SHRA OVC090 FM020200 19010KT P6SM VCSH BKN090=

USA.gov is the U.S. government's official web portal to all federal, state and local government web resources and services.